Time;durP1;ratioP1;P1;durP2;ratioP2;P2;SDS_P1;SDS_P2;PMS_P1;PMS_P2;Temp;Humidity;BMP_temperature;BMP_pressure;BME280_temperature;BME280_humidity;BME280_pressure;Samples;Min_cycle;Max_cycle;Signal;HPM_P1;HPM_P2
2023/09/11 00:01:24;;;;;;;12.10;6.05;;;;;;;;;;4367984;32;317973;-84
2023/09/11 00:03:52;;;;;;;7.15;5.03;;;;;;;;;;4357384;32;317819;-85
2023/09/11 00:06:19;;;;;;;9.35;4.30;;;;;;;;;;4365961;32;316679;-84
2023/09/11 00:08:47;;;;;;;12.37;4.57;;;;;;;;;;4367811;32;316830;-85
2023/09/11 00:11:15;;;;;;;10.65;4.93;;;;;;;;;;4354299;32;417063;-84
2023/09/11 00:13:42;;;;;;;6.72;4.60;;;;;;;;;;4368408;32;324717;-84
2023/09/11 00:16:10;;;;;;;11.32;4.57;;;;;;;;;;4353905;32;316838;-82
2023/09/11 00:18:38;;;;;;;7.00;4.62;;;;;;;;;;4368952;32;317664;-82
2023/09/11 00:21:05;;;;;;;15.20;4.50;;;;;;;;;;4358315;32;316611;-83
2023/09/11 00:23:32;;;;;;;16.80;4.80;;;;;;;;;;4367034;32;349157;-83
2023/09/11 00:26:00;;;;;;;7.70;4.35;;;;;;;;;;4356080;32;317815;-83
2023/09/11 00:28:29;;;;;;;7.78;3.97;;;;;;;;;;4366804;32;317069;-84
2023/09/11 00:31:00;;;;;;;13.35;4.45;;;;;;;;;;4355895;32;316775;-84
2023/09/11 00:33:27;;;;;;;9.13;4.28;;;;;;;;;;4368264;32;317977;-83
2023/09/11 00:35:54;;;;;;;8.25;5.12;;;;;;;;;;4358116;32;316925;-82
2023/09/11 00:38:23;;;;;;;8.85;4.05;;;;;;;;;;4362942;32;316847;-82
2023/09/11 00:40:50;;;;;;;16.00;4.62;;;;;;;;;;4358244;32;316995;-84
2023/09/11 00:43:17;;;;;;;8.75;6.40;;;;;;;;;;4368340;32;317676;-83
2023/09/11 00:45:48;;;;;;;24.33;16.70;;;;;;;;;;4365921;32;316818;-82
2023/09/11 00:48:15;;;;;;;12.15;9.23;;;;;;;;;;4353212;32;417907;-83
2023/09/11 00:50:44;;;;;;;11.82;6.43;;;;;;;;;;4367310;32;317974;-83
2023/09/11 00:53:12;;;;;;;12.10;5.68;;;;;;;;;;4356948;32;317747;-84
2023/09/11 00:55:40;;;;;;;9.52;5.50;;;;;;;;;;4363677;32;317689;-84
2023/09/11 00:58:07;;;;;;;10.55;4.47;;;;;;;;;;4368362;32;316619;-82
2023/09/11 01:00:35;;;;;;;11.80;5.28;;;;;;;;;;4356015;32;317693;-83
2023/09/11 01:03:04;;;;;;;8.35;4.40;;;;;;;;;;4368804;32;317757;-83
2023/09/11 01:05:33;;;;;;;10.73;4.70;;;;;;;;;;4355808;32;316759;-83
2023/09/11 01:08:00;;;;;;;9.85;4.32;;;;;;;;;;4369919;32;317686;-83
2023/09/11 01:10:27;;;;;;;9.20;4.65;;;;;;;;;;4353633;32;316742;-84
2023/09/11 01:12:55;;;;;;;11.23;4.37;;;;;;;;;;4368896;32;316805;-82
2023/09/11 01:15:27;;;;;;;12.98;4.28;;;;;;;;;;4361198;32;317734;-83
2023/09/11 01:18:04;;;;;;;3.90;3.37;;;;;;;;;;4368911;32;317659;-83
2023/09/11 01:21:08;;;;;;;14.98;4.18;;;;;;;;;;4360299;32;316920;-83
2023/09/11 01:24:00;;;;;;;9.02;4.20;;;;;;;;;;4329121;32;317725;-84
2023/09/11 01:27:12;;;;;;;9.63;4.22;;;;;;;;;;4360143;32;316771;-84
2023/09/11 01:29:42;;;;;;;10.90;4.18;;;;;;;;;;4319757;32;417355;-83
2023/09/11 01:32:11;;;;;;;11.05;4.55;;;;;;;;;;4369907;32;321974;-84
2023/09/11 01:34:39;;;;;;;9.60;4.18;;;;;;;;;;4355331;32;418102;-83
2023/09/11 01:37:07;;;;;;;6.05;4.05;;;;;;;;;;4371972;32;316716;-84
2023/09/11 01:39:35;;;;;;;6.55;4.50;;;;;;;;;;4349504;32;316893;-84
2023/09/11 01:42:08;;;;;;;7.53;3.60;;;;;;;;;;4370471;32;317053;-83
2023/09/11 01:44:43;;;;;;;9.00;4.50;;;;;;;;;;4360696;32;316812;-83
2023/09/11 01:47:11;;;;;;;8.15;3.65;;;;;;;;;;4370288;32;316666;-86
2023/09/11 01:49:39;;;;;;;23.35;4.10;;;;;;;;;;4353760;32;415980;-84
2023/09/11 01:52:08;;;;;;;13.25;4.53;;;;;;;;;;4369509;32;317628;-82
2023/09/11 01:54:37;;;;;;;12.73;4.75;;;;;;;;;;4357678;32;330964;-82
2023/09/11 01:57:06;;;;;;;17.25;7.80;;;;;;;;;;4370476;32;317676;-83
2023/09/11 01:59:34;;;;;;;16.70;8.10;;;;;;;;;;4354669;32;318167;-85
2023/09/11 02:02:03;;;;;;;9.15;4.90;;;;;;;;;;4370556;32;317831;-84
2023/09/11 02:04:30;;;;;;;11.82;4.47;;;;;;;;;;4357970;32;316630;-85
2023/09/11 02:06:57;;;;;;;9.48;4.37;;;;;;;;;;4370256;32;317794;-83
2023/09/11 02:09:25;;;;;;;9.00;4.80;;;;;;;;;;4358952;32;316779;-85
2023/09/11 02:11:53;;;;;;;9.25;4.15;;;;;;;;;;4366579;32;316745;-84
2023/09/11 02:14:21;;;;;;;6.23;3.90;;;;;;;;;;4356429;32;317067;-84
2023/09/11 02:16:48;;;;;;;7.35;4.05;;;;;;;;;;4367791;32;317006;-83
2023/09/11 02:19:17;;;;;;;7.07;4.05;;;;;;;;;;4358301;32;316837;-84
2023/09/11 02:21:44;;;;;;;8.70;3.90;;;;;;;;;;4366502;32;317259;-84
2023/09/11 02:24:12;;;;;;;4.75;3.45;;;;;;;;;;4353587;32;317008;-85
2023/09/11 02:26:39;;;;;;;6.45;3.83;;;;;;;;;;4367096;32;316870;-85
2023/09/11 02:29:06;;;;;;;11.68;4.57;;;;;;;;;;4367648;32;316795;-86
2023/09/11 02:31:34;;;;;;;4.35;3.40;;;;;;;;;;4355963;32;326318;-83
2023/09/11 02:34:01;;;;;;;11.73;3.95;;;;;;;;;;4369168;32;317110;-83
2023/09/11 02:36:30;;;;;;;8.13;4.10;;;;;;;;;;4360101;32;318011;-83
2023/09/11 02:38:57;;;;;;;5.03;3.40;;;;;;;;;;4369156;32;316916;-83
2023/09/11 02:41:24;;;;;;;9.77;3.45;;;;;;;;;;4358701;32;317033;-83
2023/09/11 02:43:52;;;;;;;8.52;3.85;;;;;;;;;;4366703;32;316911;-84
2023/09/11 02:46:19;;;;;;;7.60;3.87;;;;;;;;;;4358748;32;316853;-84
2023/09/11 02:48:48;;;;;;;7.30;3.62;;;;;;;;;;4369910;32;318987;-87
2023/09/11 02:51:17;;;;;;;7.05;4.30;;;;;;;;;;4358539;32;317007;-84
2023/09/11 02:53:46;;;;;;;9.00;4.03;;;;;;;;;;4366538;32;316893;-83
2023/09/11 02:56:13;;;;;;;8.18;3.97;;;;;;;;;;4357118;32;316963;-83
2023/09/11 02:58:40;;;;;;;7.30;3.40;;;;;;;;;;4368550;32;316853;-85
2023/09/11 03:01:08;;;;;;;9.55;4.00;;;;;;;;;;4369108;32;317074;-82
2023/09/11 03:03:35;;;;;;;5.40;3.60;;;;;;;;;;4354017;32;317183;-83
2023/09/11 03:06:03;;;;;;;6.97;4.20;;;;;;;;;;4369144;32;317056;-84
2023/09/11 03:08:30;;;;;;;6.72;3.42;;;;;;;;;;4359453;32;317002;-85
2023/09/11 03:11:07;;;;;;;7.90;4.03;;;;;;;;;;4368509;32;316839;-85
2023/09/11 03:13:34;;;;;;;6.35;3.90;;;;;;;;;;4342365;32;317195;-85
2023/09/11 03:16:09;;;;;;;6.45;3.92;;;;;;;;;;4368795;32;316752;-85
2023/09/11 03:18:36;;;;;;;11.32;4.15;;;;;;;;;;4355668;32;417184;-86
2023/09/11 03:21:04;;;;;;;15.13;4.72;;;;;;;;;;4369515;32;317887;-86
2023/09/11 03:23:31;;;;;;;7.32;3.62;;;;;;;;;;4355655;32;317915;-84
2023/09/11 03:25:58;;;;;;;13.10;3.75;;;;;;;;;;4368498;32;316845;-85
2023/09/11 03:28:28;;;;;;;11.02;3.85;;;;;;;;;;4359231;32;318173;-84
2023/09/11 03:30:55;;;;;;;6.82;4.35;;;;;;;;;;4368922;32;317899;-85
2023/09/11 03:33:23;;;;;;;10.02;3.55;;;;;;;;;;4358003;32;327118;-86
2023/09/11 03:35:51;;;;;;;8.80;4.00;;;;;;;;;;4367192;32;316617;-85
2023/09/11 03:38:18;;;;;;;8.50;3.25;;;;;;;;;;4357859;32;317001;-85
2023/09/11 03:40:47;;;;;;;8.63;3.83;;;;;;;;;;4368538;32;316699;-85
2023/09/11 03:43:15;;;;;;;5.82;3.53;;;;;;;;;;4358208;32;339869;-85
2023/09/11 03:45:42;;;;;;;11.88;4.22;;;;;;;;;;4365769;32;316846;-85
2023/09/11 03:48:09;;;;;;;8.45;3.78;;;;;;;;;;4368457;32;317900;-84
2023/09/11 03:50:37;;;;;;;10.35;3.30;;;;;;;;;;4354234;32;416314;-85
2023/09/11 03:53:05;;;;;;;9.10;4.10;;;;;;;;;;4369066;32;318014;-84
2023/09/11 03:55:33;;;;;;;8.07;3.78;;;;;;;;;;4355185;32;316957;-83
2023/09/11 03:58:00;;;;;;;5.82;3.70;;;;;;;;;;4364808;32;316701;-83
2023/09/11 04:00:27;;;;;;;7.07;3.58;;;;;;;;;;4353951;32;317074;-85
2023/09/11 04:02:56;;;;;;;6.90;3.37;;;;;;;;;;4368550;32;316907;-84
2023/09/11 04:05:25;;;;;;;3.65;2.83;;;;;;;;;;4356404;32;316968;-83
2023/09/11 04:07:53;;;;;;;7.45;3.47;;;;;;;;;;4368096;32;316947;-84
2023/09/11 04:10:20;;;;;;;6.62;3.92;;;;;;;;;;4329003;32;316935;-85
2023/09/11 04:12:48;;;;;;;9.40;3.87;;;;;;;;;;4337982;32;316986;-84
2023/09/11 04:15:16;;;;;;;9.52;3.80;;;;;;;;;;4328782;32;317038;-84
2023/09/11 04:17:43;;;;;;;9.38;3.85;;;;;;;;;;4334373;32;317125;-84
2023/09/11 04:20:12;;;;;;;11.85;4.37;;;;;;;;;;4337468;32;317121;-85
2023/09/11 04:22:39;;;;;;;5.50;4.00;;;;;;;;;;4326618;32;417247;-82
2023/09/11 04:25:07;;;;;;;7.70;4.00;;;;;;;;;;4339224;32;316835;-84
2023/09/11 04:27:35;;;;;;;12.18;4.68;;;;;;;;;;4324415;32;317001;-85
2023/09/11 04:30:02;;;;;;;6.10;3.97;;;;;;;;;;4336459;32;317868;-86
2023/09/11 04:32:30;;;;;;;10.82;4.25;;;;;;;;;;4328658;32;316885;-84
2023/09/11 04:34:57;;;;;;;12.18;4.72;;;;;;;;;;4333867;32;318042;-86
2023/09/11 04:37:30;;;;;;;17.25;4.65;;;;;;;;;;4329131;32;317832;-85
2023/09/11 04:39:58;;;;;;;12.45;4.43;;;;;;;;;;4337247;32;317778;-85
2023/09/11 04:42:25;;;;;;;14.45;4.68;;;;;;;;;;4329028;32;317831;-87
2023/09/11 04:44:58;;;;;;;10.43;4.15;;;;;;;;;;4338587;32;318060;-86
2023/09/11 04:47:26;;;;;;;13.13;5.00;;;;;;;;;;4328383;32;317936;-85
2023/09/11 04:49:53;;;;;;;10.98;4.75;;;;;;;;;;4333932;32;317825;-84
2023/09/11 04:52:21;;;;;;;18.02;5.70;;;;;;;;;;4328719;32;317874;-86
2023/09/11 04:54:49;;;;;;;11.90;4.68;;;;;;;;;;4338205;32;318392;-86
2023/09/11 04:57:17;;;;;;;14.68;5.95;;;;;;;;;;4328506;32;318190;-84
2023/09/11 04:59:44;;;;;;;10.93;6.03;;;;;;;;;;4333755;32;318195;-87
2023/09/11 05:02:12;;;;;;;15.23;6.30;;;;;;;;;;4327701;32;377622;-84
2023/09/11 05:04:40;;;;;;;17.12;5.95;;;;;;;;;;4335185;32;317940;-85
2023/09/11 05:07:07;;;;;;;14.18;5.30;;;;;;;;;;4337661;32;317849;-85
2023/09/11 05:09:35;;;;;;;13.70;5.07;;;;;;;;;;4346388;32;317945;-85
2023/09/11 05:12:04;;;;;;;7.45;3.78;;;;;;;;;;4367666;32;317927;-85
2023/09/11 05:14:31;;;;;;;12.88;4.10;;;;;;;;;;4356081;32;316756;-85
2023/09/11 05:16:59;;;;;;;10.15;4.37;;;;;;;;;;4367997;32;317995;-86
2023/09/11 05:19:26;;;;;;;13.38;5.15;;;;;;;;;;4351358;32;317979;-85
2023/09/11 05:21:53;;;;;;;14.93;4.43;;;;;;;;;;4367706;32;317829;-84
2023/09/11 05:24:21;;;;;;;11.25;4.95;;;;;;;;;;4357307;32;317916;-84
2023/09/11 05:26:48;;;;;;;15.55;5.15;;;;;;;;;;4366673;32;317854;-83
2023/09/11 05:29:17;;;;;;;8.38;4.95;;;;;;;;;;4356626;32;317943;-88
2023/09/11 05:31:44;;;;;;;23.55;5.65;;;;;;;;;;4364047;32;316761;-88
2023/09/11 05:34:12;;;;;;;21.05;4.57;;;;;;;;;;4358243;32;317942;-87
2023/09/11 05:36:39;;;;;;;16.42;5.68;;;;;;;;;;4367073;32;318026;-80
2023/09/11 05:39:07;;;;;;;15.07;5.72;;;;;;;;;;4367521;32;317921;-84
2023/09/11 05:41:35;;;;;;;16.75;6.05;;;;;;;;;;4354277;32;318203;-84
2023/09/11 05:44:03;;;;;;;19.92;6.30;;;;;;;;;;4368085;32;318141;-84
2023/09/11 05:46:31;;;;;;;11.60;5.07;;;;;;;;;;4355538;32;338338;-83
2023/09/11 05:48:58;;;;;;;12.82;5.50;;;;;;;;;;4367504;32;317905;-82
2023/09/11 05:51:26;;;;;;;20.37;4.87;;;;;;;;;;4357452;32;317809;-85
2023/09/11 05:53:53;;;;;;;16.73;4.78;;;;;;;;;;4363067;32;318083;-85
2023/09/11 05:56:20;;;;;;;16.58;5.45;;;;;;;;;;4359899;32;317915;-82
2023/09/11 05:58:48;;;;;;;10.55;5.00;;;;;;;;;;4369896;32;317910;-82
2023/09/11 06:01:15;;;;;;;10.60;4.97;;;;;;;;;;4357429;32;317883;-82
2023/09/11 06:03:44;;;;;;;8.95;4.10;;;;;;;;;;4364988;32;317998;-83
2023/09/11 06:06:11;;;;;;;12.30;4.85;;;;;;;;;;4369602;32;316881;-84
2023/09/11 06:08:39;;;;;;;13.43;4.72;;;;;;;;;;4355903;32;417017;-85
2023/09/11 06:11:06;;;;;;;11.02;5.30;;;;;;;;;;4369464;32;317904;-84
2023/09/11 06:13:36;;;;;;;10.18;5.12;;;;;;;;;;4355298;32;317751;-87
2023/09/11 06:16:03;;;;;;;12.43;4.28;;;;;;;;;;4367386;32;317595;-82
2023/09/11 06:18:31;;;;;;;10.45;3.80;;;;;;;;;;4358754;32;317920;-83
2023/09/11 06:21:00;;;;;;;10.95;4.53;;;;;;;;;;4367966;32;317790;-82
2023/09/11 06:23:29;;;;;;;13.98;4.28;;;;;;;;;;4356208;32;317871;-83
2023/09/11 06:25:56;;;;;;;11.75;3.85;;;;;;;;;;4368967;32;317579;-82
2023/09/11 06:28:23;;;;;;;12.23;4.15;;;;;;;;;;4356387;32;317753;-85
2023/09/11 06:30:51;;;;;;;7.05;3.85;;;;;;;;;;4368261;32;317913;-84
2023/09/11 06:33:18;;;;;;;15.13;5.00;;;;;;;;;;4356413;32;316794;-84
2023/09/11 06:35:45;;;;;;;7.82;4.43;;;;;;;;;;4365980;32;317855;-85
2023/09/11 06:38:14;;;;;;;8.73;4.43;;;;;;;;;;4359718;32;316636;-84
2023/09/11 06:40:42;;;;;;;13.25;4.62;;;;;;;;;;4370113;32;316622;-84
2023/09/11 06:43:09;;;;;;;8.68;4.43;;;;;;;;;;4366943;32;317619;-84
2023/09/11 06:45:38;;;;;;;6.43;3.80;;;;;;;;;;4350241;32;417687;-84
2023/09/11 06:48:06;;;;;;;11.88;4.22;;;;;;;;;;4369688;32;316524;-84
2023/09/11 06:50:33;;;;;;;15.15;4.00;;;;;;;;;;4358229;32;317907;-82
2023/09/11 06:53:01;;;;;;;10.48;4.05;;;;;;;;;;4367318;32;317959;-84
2023/09/11 06:55:30;;;;;;;11.02;4.25;;;;;;;;;;4357089;32;317982;-84
2023/09/11 06:58:00;;;;;;;11.73;3.58;;;;;;;;;;4366230;32;317652;-83
2023/09/11 07:00:27;;;;;;;8.52;3.95;;;;;;;;;;4358919;32;318035;-83
2023/09/11 07:02:56;;;;;;;7.75;4.30;;;;;;;;;;4368501;32;316954;-84
2023/09/11 07:05:25;;;;;;;13.48;4.03;;;;;;;;;;4357105;32;316891;-84
2023/09/11 07:07:53;;;;;;;8.63;3.70;;;;;;;;;;4365497;32;317861;-84
2023/09/11 07:10:20;;;;;;;5.75;3.10;;;;;;;;;;4356126;32;316901;-83
2023/09/11 07:12:49;;;;;;;11.18;3.45;;;;;;;;;;4367698;32;317262;-83
2023/09/11 07:15:19;;;;;;;10.70;3.50;;;;;;;;;;4355599;32;317899;-84
2023/09/11 07:17:48;;;;;;;7.45;3.65;;;;;;;;;;4362165;32;317709;-84
2023/09/11 07:20:17;;;;;;;10.95;3.40;;;;;;;;;;4358684;32;316657;-84
2023/09/11 07:22:44;;;;;;;11.80;3.20;;;;;;;;;;4365936;32;352668;-84
2023/09/11 07:25:14;;;;;;;7.90;3.87;;;;;;;;;;4357517;32;317916;-85
2023/09/11 07:27:42;;;;;;;5.82;3.35;;;;;;;;;;4362922;32;316553;-84
2023/09/11 07:30:11;;;;;;;15.57;3.67;;;;;;;;;;4368440;32;316985;-84
2023/09/11 07:32:39;;;;;;;8.75;2.83;;;;;;;;;;4355525;32;417143;-82
2023/09/11 07:35:07;;;;;;;5.82;3.90;;;;;;;;;;4368002;32;348195;-83
2023/09/11 07:37:35;;;;;;;8.95;3.80;;;;;;;;;;4353780;32;321450;-85
2023/09/11 07:40:02;;;;;;;9.52;3.30;;;;;;;;;;4368400;32;317065;-82
2023/09/11 07:42:29;;;;;;;8.35;3.50;;;;;;;;;;4357292;32;316989;-82
2023/09/11 07:44:57;;;;;;;8.15;3.45;;;;;;;;;;4368334;32;317257;-84
2023/09/11 07:47:28;;;;;;;6.85;3.58;;;;;;;;;;4356289;32;316913;-84
2023/09/11 07:49:55;;;;;;;8.15;3.00;;;;;;;;;;4368045;32;316636;-86
2023/09/11 07:52:22;;;;;;;7.90;3.12;;;;;;;;;;4357513;32;316977;-84
2023/09/11 07:54:50;;;;;;;6.62;3.37;;;;;;;;;;4368311;32;316892;-83
2023/09/11 07:57:17;;;;;;;3.62;2.70;;;;;;;;;;4356541;32;316980;-83
2023/09/11 07:59:44;;;;;;;9.65;3.12;;;;;;;;;;4362799;32;316754;-82
2023/09/11 08:02:12;;;;;;;15.63;3.45;;;;;;;;;;4358387;32;316902;-84
2023/09/11 08:04:41;;;;;;;18.62;3.45;;;;;;;;;;4367791;32;317935;-84
2023/09/11 08:07:08;;;;;;;7.87;3.62;;;;;;;;;;4367732;32;317832;-82
2023/09/11 08:09:35;;;;;;;4.78;3.62;;;;;;;;;;4343726;32;317072;-84
2023/09/11 08:12:03;;;;;;;10.55;3.42;;;;;;;;;;4366867;32;316757;-82
2023/09/11 08:14:31;;;;;;;6.60;3.22;;;;;;;;;;4356024;32;317728;-81
2023/09/11 08:16:58;;;;;;;7.25;3.08;;;;;;;;;;4366978;32;316828;-82
2023/09/11 08:19:29;;;;;;;11.45;3.25;;;;;;;;;;4355898;32;317043;-84
2023/09/11 08:21:57;;;;;;;9.32;3.55;;;;;;;;;;4366744;32;322045;-82
2023/09/11 08:24:25;;;;;;;9.13;3.80;;;;;;;;;;4357332;32;316658;-83
2023/09/11 08:26:53;;;;;;;15.40;3.72;;;;;;;;;;4364582;32;316662;-82
2023/09/11 08:29:20;;;;;;;7.15;3.42;;;;;;;;;;4357750;32;317865;-82
2023/09/11 08:31:48;;;;;;;13.10;3.50;;;;;;;;;;4365800;32;316823;-82
2023/09/11 08:34:15;;;;;;;9.90;2.95;;;;;;;;;;4352517;32;317998;-83
2023/09/11 08:36:43;;;;;;;7.12;3.12;;;;;;;;;;4366068;32;317091;-83
2023/09/11 08:39:11;;;;;;;8.68;3.42;;;;;;;;;;4366644;32;316660;-83
2023/09/11 08:41:40;;;;;;;7.12;3.60;;;;;;;;;;4352239;32;386669;-85
2023/09/11 08:44:07;;;;;;;6.47;3.00;;;;;;;;;;4366465;32;317026;-84
2023/09/11 08:46:35;;;;;;;6.82;3.37;;;;;;;;;;4357807;32;316723;-84
2023/09/11 08:49:07;;;;;;;11.98;3.97;;;;;;;;;;4367948;32;316627;-85
2023/09/11 08:51:39;;;;;;;9.77;3.40;;;;;;;;;;4356174;32;318044;-85
2023/09/11 08:54:09;;;;;;;10.75;3.28;;;;;;;;;;4367003;32;316982;-85
2023/09/11 08:56:40;;;;;;;8.55;3.22;;;;;;;;;;4340933;32;417968;-86
2023/09/11 08:59:10;;;;;;;6.50;4.15;;;;;;;;;;4366632;32;316896;-83
2023/09/11 09:01:38;;;;;;;12.10;4.22;;;;;;;;;;4352320;32;416466;-84
2023/09/11 09:04:07;;;;;;;8.27;4.00;;;;;;;;;;4366709;32;317894;-83
2023/09/11 09:06:36;;;;;;;8.40;3.17;;;;;;;;;;4356257;32;327847;-81
2023/09/11 09:09:03;;;;;;;9.57;3.62;;;;;;;;;;4366872;32;317471;-83
2023/09/11 09:11:32;;;;;;;6.28;3.45;;;;;;;;;;4353192;32;316803;-83
2023/09/11 09:14:06;;;;;;;5.55;3.37;;;;;;;;;;4366746;32;316933;-85
2023/09/11 09:16:34;;;;;;;14.10;3.60;;;;;;;;;;4356713;32;316858;-83
2023/09/11 09:19:01;;;;;;;9.60;2.97;;;;;;;;;;4364994;32;317839;-85
2023/09/11 09:21:29;;;;;;;8.35;2.58;;;;;;;;;;4354555;32;317431;-85
2023/09/11 09:24:08;;;;;;;10.65;4.05;;;;;;;;;;4366209;32;316606;-83
2023/09/11 09:26:56;;;;;;;5.85;3.15;;;;;;;;;;4354497;32;317976;-85
2023/09/11 09:29:27;;;;;;;6.97;3.65;;;;;;;;;;4358005;32;316782;-84
2023/09/11 09:31:54;;;;;;;4.75;3.15;;;;;;;;;;4370411;32;316888;-84
2023/09/11 09:34:22;;;;;;;7.12;2.90;;;;;;;;;;4352439;32;316537;-83
2023/09/11 09:36:50;;;;;;;9.43;3.53;;;;;;;;;;4369024;32;316639;-85
2023/09/11 09:39:18;;;;;;;6.97;3.22;;;;;;;;;;4357467;32;316848;-83
2023/09/11 09:41:53;;;;;;;4.43;2.62;;;;;;;;;;4367640;32;316864;-85
2023/09/11 09:44:32;;;;;;;8.02;2.70;;;;;;;;;;4360760;32;316741;-85
2023/09/11 09:47:07;;;;;;;6.12;3.05;;;;;;;;;;4370653;32;317067;-84
2023/09/11 09:49:44;;;;;;;5.18;2.67;;;;;;;;;;4357618;32;327386;-87
2023/09/11 09:52:11;;;;;;;8.48;2.97;;;;;;;;;;4368602;32;315666;-83
2023/09/11 09:54:46;;;;;;;10.00;3.03;;;;;;;;;;4355843;32;415669;-88
2023/09/11 09:57:15;;;;;;;7.68;2.90;;;;;;;;;;4357420;32;400373;-85
2023/09/11 09:59:47;;;;;;;6.97;3.45;;;;;;;;;;4365296;32;316785;-87
2023/09/11 10:02:15;;;;;;;11.18;2.53;;;;;;;;;;4358675;32;316673;-87
2023/09/11 10:04:42;;;;;;;5.28;2.70;;;;;;;;;;4367567;32;318110;-86
2023/09/11 10:07:10;;;;;;;9.57;3.00;;;;;;;;;;4369039;32;316876;-86
2023/09/11 10:09:37;;;;;;;9.45;2.90;;;;;;;;;;4356231;32;316712;-84
2023/09/11 10:12:11;;;;;;;10.23;2.50;;;;;;;;;;4369554;32;316667;-85
2023/09/11 10:14:38;;;;;;;5.95;2.45;;;;;;;;;;4354925;32;417105;-86
2023/09/11 10:17:07;;;;;;;4.30;2.83;;;;;;;;;;4368026;32;316813;-86
2023/09/11 10:19:35;;;;;;;14.38;2.95;;;;;;;;;;4356658;32;316729;-86
2023/09/11 10:22:05;;;;;;;9.02;3.17;;;;;;;;;;4369206;32;317760;-83
2023/09/11 10:24:32;;;;;;;16.25;3.22;;;;;;;;;;4359457;32;316935;-84
2023/09/11 10:27:04;;;;;;;4.72;3.10;;;;;;;;;;4368755;32;340270;-85
2023/09/11 10:29:42;;;;;;;4.47;2.95;;;;;;;;;;4357487;32;316668;-85
2023/09/11 10:32:20;;;;;;;6.03;3.03;;;;;;;;;;4366747;32;316838;-85
2023/09/11 10:34:50;;;;;;;7.72;2.67;;;;;;;;;;4356370;32;415913;-87
2023/09/11 10:37:21;;;;;;;4.47;2.87;;;;;;;;;;4356159;32;344578;-85
2023/09/11 10:39:51;;;;;;;6.65;2.58;;;;;;;;;;4364184;32;316911;-86
2023/09/11 10:42:19;;;;;;;10.20;3.17;;;;;;;;;;4357242;32;316901;-87
2023/09/11 10:44:46;;;;;;;6.30;3.03;;;;;;;;;;4369113;32;317718;-86
2023/09/11 10:47:16;;;;;;;8.38;3.15;;;;;;;;;;4359470;32;316821;-85
2023/09/11 10:49:44;;;;;;;8.02;2.85;;;;;;;;;;4365807;32;316453;-84
2023/09/11 10:52:12;;;;;;;6.50;3.17;;;;;;;;;;4367006;32;316630;-85
2023/09/11 10:54:42;;;;;;;6.50;3.10;;;;;;;;;;4357649;32;386205;-84
2023/09/11 10:57:09;;;;;;;6.25;2.92;;;;;;;;;;4368756;32;316876;-85
2023/09/11 10:59:37;;;;;;;5.15;2.90;;;;;;;;;;4350297;32;419090;-85
2023/09/11 11:02:05;;;;;;;5.43;2.47;;;;;;;;;;4366301;32;316736;-86
2023/09/11 11:04:33;;;;;;;4.50;2.65;;;;;;;;;;4358298;32;316608;-85
2023/09/11 11:07:02;;;;;;;5.40;2.95;;;;;;;;;;4369973;32;316875;-86
2023/09/11 11:09:34;;;;;;;7.10;2.80;;;;;;;;;;4354404;32;316885;-86
2023/09/11 11:12:05;;;;;;;5.68;2.80;;;;;;;;;;4368797;32;316737;-84
2023/09/11 11:14:33;;;;;;;12.95;3.08;;;;;;;;;;4357111;32;316786;-84
2023/09/11 11:17:03;;;;;;;6.07;2.65;;;;;;;;;;4368619;32;317767;-84
2023/09/11 11:19:31;;;;;;;7.00;2.53;;;;;;;;;;4354837;32;332673;-85
2023/09/11 11:22:01;;;;;;;6.50;2.72;;;;;;;;;;4364391;32;316814;-86
2023/09/11 11:24:31;;;;;;;4.43;2.40;;;;;;;;;;4358724;32;316709;-85
2023/09/11 11:27:01;;;;;;;10.73;2.85;;;;;;;;;;4366944;32;316700;-86
2023/09/11 11:29:30;;;;;;;6.72;2.58;;;;;;;;;;4353397;32;317971;-86
2023/09/11 11:31:59;;;;;;;6.85;2.37;;;;;;;;;;4366837;32;316973;-85
2023/09/11 11:34:31;;;;;;;7.25;2.05;;;;;;;;;;4358352;32;316795;-85
2023/09/11 11:37:03;;;;;;;5.12;2.35;;;;;;;;;;4366837;32;316656;-85
2023/09/11 11:39:34;;;;;;;4.82;2.25;;;;;;;;;;4356387;32;316620;-85
2023/09/11 11:42:02;;;;;;;4.97;2.22;;;;;;;;;;4365410;32;316720;-86
2023/09/11 11:44:33;;;;;;;3.62;1.75;;;;;;;;;;4358411;32;316739;-86
2023/09/11 11:47:00;;;;;;;8.00;3.33;;;;;;;;;;4366767;32;316845;-84
2023/09/11 11:49:29;;;;;;;8.13;2.03;;;;;;;;;;4351959;32;316784;-86
2023/09/11 11:52:03;;;;;;;3.80;2.33;;;;;;;;;;4368193;32;323163;-85
2023/09/11 11:54:31;;;;;;;4.20;2.10;;;;;;;;;;4356873;32;316891;-85
2023/09/11 11:56:59;;;;;;;5.55;2.30;;;;;;;;;;4368044;32;316870;-85
2023/09/11 11:59:31;;;;;;;4.40;2.03;;;;;;;;;;4353338;32;346024;-87
2023/09/11 12:01:59;;;;;;;4.78;2.45;;;;;;;;;;4365750;32;316765;-86
2023/09/11 12:04:25;;;;;;;7.00;2.65;;;;;;;;;;4356426;32;316836;-86
2023/09/11 12:06:54;;;;;;;4.07;2.28;;;;;;;;;;4367289;32;316692;-87
2023/09/11 12:09:24;;;;;;;9.90;2.30;;;;;;;;;;4354558;32;317045;-86
2023/09/11 12:11:52;;;;;;;12.37;2.62;;;;;;;;;;4364565;32;316971;-86
2023/09/11 12:14:20;;;;;;;3.95;2.00;;;;;;;;;;4355659;32;317929;-85
2023/09/11 12:16:50;;;;;;;3.53;2.05;;;;;;;;;;4368164;32;316925;-86
2023/09/11 12:19:19;;;;;;;6.43;2.60;;;;;;;;;;4355763;32;316812;-85
2023/09/11 12:21:46;;;;;;;4.12;2.30;;;;;;;;;;4363628;32;316798;-84
2023/09/11 12:24:14;;;;;;;10.82;2.58;;;;;;;;;;4355513;32;342892;-85
2023/09/11 12:26:43;;;;;;;17.37;3.33;;;;;;;;;;4367322;32;317892;-85
2023/09/11 12:29:10;;;;;;;4.50;2.28;;;;;;;;;;4367129;32;317638;-85
2023/09/11 12:31:38;;;;;;;8.68;2.70;;;;;;;;;;4349200;32;415995;-84
2023/09/11 12:34:05;;;;;;;3.95;2.55;;;;;;;;;;4368526;32;316656;-84
2023/09/11 12:36:33;;;;;;;9.27;3.20;;;;;;;;;;4356046;32;317202;-84
2023/09/11 12:39:01;;;;;;;3.83;3.00;;;;;;;;;;4365790;32;316851;-84
2023/09/11 12:41:28;;;;;;;7.00;2.30;;;;;;;;;;4353328;32;316765;-86
2023/09/11 12:43:57;;;;;;;5.85;2.58;;;;;;;;;;4364523;32;344626;-86
2023/09/11 12:46:24;;;;;;;9.43;2.60;;;;;;;;;;4357760;32;317006;-85
2023/09/11 12:48:52;;;;;;;4.90;2.22;;;;;;;;;;4366479;32;317069;-85
2023/09/11 12:51:19;;;;;;;17.00;3.92;;;;;;;;;;4357080;32;317289;-86
2023/09/11 12:53:47;;;;;;;8.05;2.97;;;;;;;;;;4360565;32;317789;-86
2023/09/11 12:56:20;;;;;;;4.35;2.40;;;;;;;;;;4355607;32;316775;-86
2023/09/11 12:58:48;;;;;;;5.28;2.90;;;;;;;;;;4365426;32;316876;-85
2023/09/11 13:01:16;;;;;;;9.55;3.12;;;;;;;;;;4357679;32;316545;-85
2023/09/11 13:03:47;;;;;;;3.97;2.47;;;;;;;;;;4365292;32;316755;-84
2023/09/11 13:06:14;;;;;;;8.35;2.70;;;;;;;;;;4357082;32;316826;-84
2023/09/11 13:08:42;;;;;;;9.77;3.15;;;;;;;;;;4369487;32;316772;-83
2023/09/11 13:11:09;;;;;;;4.78;2.47;;;;;;;;;;4370604;32;316813;-83
2023/09/11 13:13:37;;;;;;;2.80;2.03;;;;;;;;;;4354101;32;416264;-84
2023/09/11 13:16:04;;;;;;;8.52;2.58;;;;;;;;;;4370245;32;316852;-84
2023/09/11 13:18:33;;;;;;;10.23;2.67;;;;;;;;;;4358721;32;316546;-84
2023/09/11 13:21:04;;;;;;;7.62;2.50;;;;;;;;;;4368989;32;317937;-87
2023/09/11 13:23:33;;;;;;;7.28;2.83;;;;;;;;;;4356956;32;316878;-84
2023/09/11 13:26:01;;;;;;;16.55;3.20;;;;;;;;;;4367702;32;316607;-83
2023/09/11 13:28:28;;;;;;;9.52;2.70;;;;;;;;;;4358981;32;317807;-84
2023/09/11 13:30:59;;;;;;;6.55;2.40;;;;;;;;;;4367725;32;316650;-83
2023/09/11 13:33:26;;;;;;;5.70;2.42;;;;;;;;;;4357219;32;342050;-87
2023/09/11 13:35:56;;;;;;;9.18;3.05;;;;;;;;;;4366042;32;316949;-83
2023/09/11 13:38:23;;;;;;;5.78;2.55;;;;;;;;;;4360416;32;316889;-82
2023/09/11 13:40:50;;;;;;;14.73;8.00;;;;;;;;;;4370520;32;316833;-83
2023/09/11 13:43:18;;;;;;;6.07;3.00;;;;;;;;;;4357101;32;317870;-83
2023/09/11 13:45:45;;;;;;;3.65;2.50;;;;;;;;;;4365131;32;316710;-83
2023/09/11 13:48:13;;;;;;;9.20;2.60;;;;;;;;;;4356522;32;316701;-83
2023/09/11 13:50:40;;;;;;;9.48;2.45;;;;;;;;;;4369490;32;316770;-83
2023/09/11 13:53:09;;;;;;;8.07;2.60;;;;;;;;;;4368786;32;316822;-83
2023/09/11 13:55:39;;;;;;;5.12;2.37;;;;;;;;;;4355877;32;317614;-83
2023/09/11 13:58:06;;;;;;;7.30;2.62;;;;;;;;;;4370080;32;316757;-84
2023/09/11 14:00:34;;;;;;;9.15;2.83;;;;;;;;;;4359126;32;317053;-83
2023/09/11 14:03:02;;;;;;;8.70;2.65;;;;;;;;;;4370290;32;317186;-85
2023/09/11 14:05:30;;;;;;;4.87;1.90;;;;;;;;;;4352619;32;316994;-84
2023/09/11 14:07:57;;;;;;;6.47;2.62;;;;;;;;;;4367421;32;316834;-84
2023/09/11 14:10:28;;;;;;;4.45;2.80;;;;;;;;;;4355890;32;316850;-88
2023/09/11 14:12:56;;;;;;;6.95;3.85;;;;;;;;;;4368772;32;316728;-85
2023/09/11 14:15:24;;;;;;;12.20;2.95;;;;;;;;;;4357791;32;316859;-85
2023/09/11 14:17:52;;;;;;;5.45;2.78;;;;;;;;;;4364142;32;317899;-85
2023/09/11 14:20:19;;;;;;;5.03;2.50;;;;;;;;;;4359294;32;316862;-87
2023/09/11 14:22:49;;;;;;;4.07;2.53;;;;;;;;;;4369109;32;316909;-85
2023/09/11 14:25:18;;;;;;;4.25;2.33;;;;;;;;;;4359113;32;316829;-85
2023/09/11 14:27:46;;;;;;;3.40;2.50;;;;;;;;;;4366904;32;316984;-86
2023/09/11 14:30:14;;;;;;;5.05;2.53;;;;;;;;;;4355122;32;316602;-86
2023/09/11 14:32:41;;;;;;;5.90;2.15;;;;;;;;;;4369063;32;316769;-86
2023/09/11 14:35:09;;;;;;;5.30;2.58;;;;;;;;;;4367761;32;342840;-86